Terminal Aerodrome Forecast
Issued by NWS Caribou, ME

Home | Current Version | Previous Version | Text Only | Print | Product List | Glossary On
Versions: 1 2 3 4 5 6 7 8 9 10 11 12 13 14 15 16 17 18 19 20 21 22
000
FTUS41 KCAR 212346
TAFBGR
TAF
KBGR 212346Z 2200/2224 36006KT P6SM BKN011 OVC035
     FM220400 03004KT 5SM -SN SCT007 OVC015
     FM221200 07005KT P6SM SCT007 OVC020=

USA.gov is the U.S. government's official web portal to all federal, state and local government web resources and services.